Hlavní strana
METAR-TAF:

METAR-TAF

Letiště :

Ouagadougou, Burkina Faso

zeměpisná šířka: 12-21N, zeměpisná délka: 001-31W, výška: 316 m

Aktuální stav počasí

Zpráva byla vytvořena před 2 hodinami a 44 minutami, v 06:00 UTC
Jihojihozápadní vítr 5 kt
Teplota 25°C
Vlhkost vzduchu 89%
Tlak 1012 hPa
Viditelnost 10 km a více
Žádná oblačnost pod 1500 m, nevyskytují se cumulonimby.

METAR: DFFD 200600Z 20005KT CAVOK 25/23 Q1012 NOSIG

Čas: 08:44 (08:44 UTC)

Předpověď počasí

Zpráva byla vytvořena před 3 hodinami a 44 minutami, v 05:00 UTC
Předpověď platná od 20 v 06 UTC do 21 v 12 UTC
Jihojihovýchodní vítr 8 kt
Viditelnost 10 km a více
Polojasno ve výšce 2600 ft
Pravděpodobnost 30% :
Dočasný
od 20 v 16 UTC do 20 v 24 UTC
vítr z různých směrů 25 kt s nárazy do 45 kt
Viditelnost: 3000 m
Polojasno ve výšce 2600 ft
Polojasno ve výšce 3600 ft, Cumulonimbus.
zvířený písek, bouřky, bouřka, déšť

TAF: DFFD 200500Z 2006/2112 16008KT 9999 SCT026 PROB30 TEMPO 2016/2024 VRB25G45KT 3000 BLSA SQ TSRA SCT026 SCT036CB

Stav a předpovědi počasí z více než 4 000 letišť (zprávy METAR a TAF).

Červené a žluté tečky na mapě představují dostupné meteorologické stanice.

Když kurzor umístíte na tečku, zobrazí se název stanice.

Pak kliknutím zobrazíte stav a předpověď počasí.

Chcete-li změnit mapu, kliknutím na zelené tlačítko se znaménkem +mapu přiblížíte, kliknutím na zelené tlačítko se znaménkem – mapu oddálíte a kliknutím na zelené šipky přejdete na sousední mapy.


METAR-TAF: